createdAt,value
2022-10-16T00:02:11.348Z,1.65
2022-10-16T00:04:57.802Z,1.65
2022-10-16T00:07:44.161Z,2.97
2022-10-16T00:10:30.534Z,1.40
2022-10-16T00:13:17.962Z,1.25
2022-10-16T00:16:06.424Z,1.65
2022-10-16T00:18:52.964Z,2.15
2022-10-16T00:21:39.843Z,1.60
2022-10-16T00:24:26.469Z,3.70
2022-10-16T00:27:12.564Z,3.97
2022-10-16T00:32:52.038Z,1.30
2022-10-16T00:35:38.263Z,1.30
2022-10-16T00:38:24.456Z,1.75
2022-10-16T00:41:15.948Z,1.40
2022-10-16T00:44:04.153Z,1.50
2022-10-16T00:46:52.240Z,2.22
2022-10-16T00:49:40.082Z,2.20
2022-10-16T00:52:27.046Z,2.95
2022-10-16T00:55:14.567Z,1.65
2022-10-16T00:58:01.581Z,1.70
2022-10-16T01:00:47.715Z,1.52
2022-10-16T01:03:37.070Z,1.98
2022-10-16T01:06:30.627Z,2.08
2022-10-16T01:09:22.233Z,1.50
2022-10-16T01:12:16.550Z,1.75
2022-10-16T01:15:10.029Z,1.75
2022-10-16T01:18:02.230Z,2.53
2022-10-16T01:20:53.134Z,11.43
2022-10-16T01:23:51.405Z,2.08
2022-10-16T01:27:07.523Z,1.58
2022-10-16T01:29:58.410Z,1.88
2022-10-16T01:32:50.256Z,2.08
2022-10-16T01:35:40.598Z,1.75
2022-10-16T01:38:32.610Z,1.70
2022-10-16T01:41:25.730Z,2.17
2022-10-16T01:44:16.071Z,2.00
2022-10-16T01:47:04.519Z,4.25
2022-10-16T01:49:52.829Z,2.30
2022-10-16T01:52:43.934Z,2.28
2022-10-16T01:55:34.382Z,3.33
2022-10-16T01:58:20.698Z,1.92
2022-10-16T02:01:09.797Z,3.10
2022-10-16T02:04:01.302Z,2.03
2022-10-16T02:06:47.768Z,2.22
2022-10-16T02:09:35.891Z,20.15
2022-10-16T02:12:28.224Z,2.83
2022-10-16T02:15:15.109Z,1.60
2022-10-16T02:18:01.409Z,2.50
2022-10-16T02:20:54.907Z,2.10
2022-10-16T02:23:47.499Z,2.35
2022-10-16T02:26:42.876Z,6.35
2022-10-16T02:29:29.621Z,2.00
2022-10-16T02:32:19.446Z,1.85
2022-10-16T02:35:08.110Z,1.80
2022-10-16T02:37:56.852Z,2.35
2022-10-16T02:40:43.558Z,1.70
2022-10-16T02:43:30.565Z,1.92
2022-10-16T02:46:17.104Z,2.13
2022-10-16T02:49:03.606Z,3.53
2022-10-16T02:51:50.213Z,1.90
2022-10-16T02:54:37.969Z,1.88
2022-10-16T02:57:24.730Z,1.67
2022-10-16T03:00:14.255Z,1.90
2022-10-16T03:03:00.646Z,3.78
2022-10-16T03:05:47.477Z,2.50
2022-10-16T03:08:34.138Z,2.08
2022-10-16T03:11:21.998Z,2.83
2022-10-16T03:14:08.562Z,1.90
2022-10-16T03:16:54.780Z,2.88
2022-10-16T03:19:41.234Z,1.45
2022-10-16T03:22:27.439Z,1.50
2022-10-16T03:25:14.033Z,2.53
2022-10-16T03:28:01.689Z,1.63
2022-10-16T03:30:48.122Z,1.70
2022-10-16T03:33:34.657Z,2.05
2022-10-16T03:36:21.399Z,2.58
2022-10-16T03:39:07.577Z,1.90
2022-10-16T03:41:53.930Z,1.88
2022-10-16T03:44:41.594Z,5.95
2022-10-16T03:47:28.257Z,5.15
2022-10-16T03:50:14.643Z,2.50
2022-10-16T03:53:01.174Z,2.00
2022-10-16T03:55:47.384Z,4.05
2022-10-16T03:58:33.897Z,2.58
2022-10-16T04:01:21.476Z,4.15
2022-10-16T04:04:07.901Z,2.20
2022-10-16T04:06:54.149Z,2.50
2022-10-16T04:09:40.779Z,3.60
2022-10-16T04:12:27.402Z,2.63
2022-10-16T04:15:13.622Z,3.08
2022-10-16T04:18:01.186Z,2.88
2022-10-16T04:20:47.663Z,5.45
2022-10-16T04:23:34.593Z,4.25
2022-10-16T04:26:21.097Z,2.40
2022-10-16T04:29:08.008Z,1.92
2022-10-16T04:31:54.061Z,2.10
2022-10-16T04:34:42.554Z,2.47
2022-10-16T04:37:29.682Z,2.55
2022-10-16T04:40:16.925Z,4.07
2022-10-16T04:43:03.822Z,2.50
2022-10-16T04:45:51.480Z,2.30
2022-10-16T04:48:38.018Z,5.50
2022-10-16T04:51:26.566Z,3.88
2022-10-16T04:54:13.263Z,3.67
2022-10-16T04:56:59.471Z,2.00
2022-10-16T04:59:46.033Z,2.80
2022-10-16T05:02:32.522Z,2.28
2022-10-16T05:05:20.295Z,2.30
2022-10-16T05:08:07.791Z,2.47
2022-10-16T05:10:54.337Z,5.43
2022-10-16T05:13:40.521Z,2.70
2022-10-16T05:16:27.144Z,2.50
2022-10-16T05:19:29.174Z,2.30
2022-10-16T05:22:15.486Z,2.33
2022-10-16T05:25:03.373Z,4.25
2022-10-16T05:27:50.397Z,2.78
2022-10-16T05:30:39.399Z,2.22
2022-10-16T05:33:27.428Z,1.88
2022-10-16T05:36:13.887Z,2.00
2022-10-16T05:39:00.174Z,2.05
2022-10-16T05:41:48.142Z,1.95
2022-10-16T05:47:25.876Z,1.80
2022-10-16T05:50:12.228Z,2.13
2022-10-16T05:52:58.993Z,2.15
2022-10-16T05:55:53.193Z,2.80
2022-10-16T05:58:41.723Z,2.22
2022-10-16T06:01:28.254Z,2.47
2022-10-16T06:04:14.538Z,2.97
2022-10-16T06:07:02.334Z,2.55
2022-10-16T06:09:50.598Z,2.20
2022-10-16T06:12:36.929Z,1.75
2022-10-16T06:15:24.396Z,2.90
2022-10-16T06:18:11.643Z,1.83
2022-10-16T06:20:58.618Z,1.80
2022-10-16T06:26:39.118Z,3.70
2022-10-16T06:29:25.316Z,1.80
2022-10-16T06:32:13.374Z,2.15
2022-10-16T06:34:59.595Z,3.30
2022-10-16T06:37:45.715Z,2.30
2022-10-16T06:40:32.193Z,4.38
2022-10-16T06:43:18.746Z,2.42
2022-10-16T06:46:08.620Z,2.95
2022-10-16T06:48:56.489Z,3.00
2022-10-16T06:51:43.565Z,3.58
2022-10-16T06:54:32.160Z,2.25
2022-10-16T06:57:23.077Z,2.13
2022-10-16T07:00:10.046Z,2.50
2022-10-16T07:02:56.399Z,2.97
2022-10-16T07:05:44.713Z,2.10
2022-10-16T07:08:33.024Z,3.03
2022-10-16T07:11:20.769Z,2.38
2022-10-16T07:14:14.496Z,2.80
2022-10-16T07:17:00.622Z,2.10
2022-10-16T07:19:47.225Z,1.92
2022-10-16T07:22:34.883Z,5.05
2022-10-16T07:25:21.239Z,2.20
2022-10-16T07:28:07.913Z,1.90
2022-10-16T07:30:54.322Z,8.52
2022-10-16T07:33:42.699Z,3.15
2022-10-16T07:36:29.633Z,1.80
2022-10-16T07:39:17.089Z,2.15
2022-10-16T07:42:03.512Z,1.80
2022-10-16T07:44:49.805Z,3.25
2022-10-16T07:47:36.656Z,1.77
2022-10-16T07:50:23.062Z,7.45
2022-10-16T07:53:09.774Z,4.13
2022-10-16T07:56:00.827Z,6.80
2022-10-16T07:58:47.731Z,1.90
2022-10-16T08:01:33.881Z,2.65
2022-10-16T08:04:20.427Z,2.20
2022-10-16T08:07:08.349Z,1.95
2022-10-16T08:09:54.778Z,1.70
2022-10-16T08:12:42.354Z,6.35
2022-10-16T08:15:29.027Z,6.47
2022-10-16T08:18:16.234Z,1.70
2022-10-16T08:21:02.590Z,1.88
2022-10-16T08:23:52.983Z,1.88
2022-10-16T08:26:43.578Z,2.63
2022-10-16T08:29:31.831Z,2.25
2022-10-16T08:32:18.399Z,1.60
2022-10-16T08:35:05.351Z,4.72
2022-10-16T08:37:51.941Z,3.83
2022-10-16T08:40:39.332Z,1.90
2022-10-16T08:43:45.768Z,1.90
2022-10-16T08:46:49.628Z,2.13
2022-10-16T08:49:39.081Z,2.58
2022-10-16T08:52:31.026Z,2.03
2022-10-16T08:55:29.739Z,2.08
2022-10-16T08:58:18.959Z,2.53
2022-10-16T09:01:12.879Z,1.95
2022-10-16T09:04:24.427Z,2.55
2022-10-16T09:07:17.703Z,2.70
2022-10-16T09:10:16.444Z,1.80
2022-10-16T09:13:10.577Z,1.85
2022-10-16T09:16:05.957Z,1.58
2022-10-16T09:19:00.369Z,1.80
2022-10-16T09:21:49.109Z,1.77
2022-10-16T09:24:36.443Z,1.52
2022-10-16T09:27:23.070Z,1.30
2022-10-16T09:30:14.782Z,1.58
2022-10-16T09:33:01.956Z,1.45
2022-10-16T09:35:51.710Z,1.95
2022-10-16T09:38:39.787Z,1.27
2022-10-16T09:41:26.465Z,1.75
2022-10-16T09:44:23.709Z,1.33
2022-10-16T09:47:18.538Z,1.92
2022-10-16T09:50:07.980Z,1.90
2022-10-16T09:53:06.598Z,2.30
2022-10-16T09:55:55.650Z,1.90
2022-10-16T09:58:45.651Z,1.50
2022-10-16T10:01:38.290Z,1.67
2022-10-16T10:04:26.801Z,2.38
2022-10-16T10:07:20.959Z,1.27
2022-10-16T10:10:08.338Z,1.45
2022-10-16T10:12:56.748Z,6.90
2022-10-16T10:15:44.110Z,0.93
2022-10-16T10:18:32.803Z,1.00
2022-10-16T10:21:19.382Z,1.42
2022-10-16T10:24:06.065Z,3.13
2022-10-16T10:26:59.044Z,1.20
2022-10-16T10:29:56.086Z,1.38
2022-10-16T10:32:50.101Z,8.93
2022-10-16T10:35:44.488Z,4.43
2022-10-16T10:38:40.993Z,4.15
2022-10-16T10:41:58.891Z,1.20
2022-10-16T10:45:10.185Z,0.90
2022-10-16T10:48:21.462Z,1.50
2022-10-16T10:51:13.750Z,7.75
2022-10-16T10:54:15.163Z,1.30
2022-10-16T10:57:08.521Z,1.27
2022-10-16T11:00:10.355Z,1.40
2022-10-16T11:03:06.643Z,1.40
2022-10-16T11:05:58.469Z,1.95
2022-10-16T11:08:50.419Z,2.50
2022-10-16T11:11:40.283Z,8.93
2022-10-16T11:14:33.128Z,2.60
2022-10-16T11:17:26.767Z,1.52
2022-10-16T11:20:19.031Z,1.70
2022-10-16T11:23:13.788Z,1.95
2022-10-16T11:26:07.238Z,2.58
2022-10-16T11:28:56.861Z,1.42
2022-10-16T11:31:48.370Z,2.17
2022-10-16T11:34:40.726Z,5.90
2022-10-16T11:37:32.184Z,1.52
2022-10-16T11:40:24.472Z,1.35
2022-10-16T11:43:19.071Z,1.65
2022-10-16T11:46:12.846Z,2.45
2022-10-16T11:49:05.817Z,1.60
2022-10-16T11:52:01.562Z,1.60
2022-10-16T11:54:54.310Z,3.03
2022-10-16T11:57:44.566Z,3.17
2022-10-16T12:00:35.988Z,1.52
2022-10-16T12:03:27.890Z,3.78
2022-10-16T12:06:24.516Z,2.60
2022-10-16T12:09:19.004Z,2.53
2022-10-16T12:12:05.829Z,3.75
2022-10-16T12:15:22.474Z,1.20
2022-10-16T12:18:22.153Z,1.95
2022-10-16T12:21:09.482Z,0.90
2022-10-16T12:24:05.420Z,1.33
2022-10-16T12:26:54.530Z,2.72
2022-10-16T12:29:43.780Z,1.70
2022-10-16T12:32:49.178Z,1.65
2022-10-16T12:35:44.725Z,2.10
2022-10-16T12:38:38.849Z,1.50
2022-10-16T12:41:30.772Z,1.40
2022-10-16T12:44:27.194Z,1.50
2022-10-16T12:47:22.419Z,1.55
2022-10-16T12:50:27.717Z,1.20
2022-10-16T12:53:24.951Z,6.32
2022-10-16T12:56:24.162Z,2.60
2022-10-16T12:59:21.833Z,4.68
2022-10-16T13:02:42.331Z,1.98
2022-10-16T13:05:47.356Z,1.20
2022-10-16T13:08:58.675Z,1.85
2022-10-16T13:12:23.198Z,1.10
2022-10-16T13:15:24.402Z,1.25
2022-10-16T13:18:17.710Z,4.45
2022-10-16T13:21:16.264Z,2.05
2022-10-16T13:24:09.843Z,1.38
2022-10-16T13:27:03.322Z,3.05
2022-10-16T13:29:56.245Z,1.60
2022-10-16T13:32:46.176Z,7.63
2022-10-16T13:35:36.903Z,1.60
2022-10-16T13:38:26.263Z,1.73
2022-10-16T13:41:17.562Z,1.88
2022-10-16T13:44:04.405Z,5.65
2022-10-16T13:47:00.638Z,5.32
2022-10-16T13:49:47.375Z,1.50
2022-10-16T13:52:35.447Z,3.20
2022-10-16T13:55:22.088Z,4.15
2022-10-16T13:58:11.055Z,3.22
2022-10-16T14:00:59.562Z,1.58
2022-10-16T14:03:47.247Z,3.03
2022-10-16T14:06:34.865Z,1.73
2022-10-16T14:09:27.533Z,1.95
2022-10-16T14:12:14.594Z,6.75
2022-10-16T14:15:02.682Z,3.22
2022-10-16T14:17:52.656Z,1.23
2022-10-16T14:20:39.298Z,1.02
2022-10-16T14:23:31.919Z,1.30
2022-10-16T14:26:22.661Z,1.40
2022-10-16T14:29:14.042Z,1.90
2022-10-16T14:32:01.884Z,2.90
2022-10-16T14:34:55.821Z,8.82
2022-10-16T14:37:42.442Z,3.70
2022-10-16T14:40:31.292Z,1.48
2022-10-16T14:43:23.305Z,5.20
2022-10-16T14:46:14.938Z,3.13
2022-10-16T14:49:05.534Z,11.02
2022-10-16T14:51:52.971Z,2.75
2022-10-16T14:54:39.233Z,1.15
2022-10-16T14:57:28.524Z,1.60
2022-10-16T15:00:20.862Z,1.70
2022-10-16T15:03:07.474Z,1.90
2022-10-16T15:05:54.164Z,2.30
2022-10-16T15:08:40.602Z,3.20
2022-10-16T15:11:26.893Z,1.55
2022-10-16T15:17:04.021Z,2.58
2022-10-16T15:19:50.197Z,2.47
2022-10-16T15:22:36.735Z,7.60
2022-10-16T15:25:34.765Z,2.97
2022-10-16T15:28:22.917Z,2.42
2022-10-16T15:31:10.942Z,11.07
2022-10-16T15:34:05.039Z,5.68
2022-10-16T15:36:51.338Z,4.88
2022-10-16T15:39:41.233Z,3.00
2022-10-16T15:42:28.287Z,2.88
2022-10-16T15:45:16.085Z,4.85
2022-10-16T15:48:02.340Z,2.00
2022-10-16T15:50:50.118Z,2.85
2022-10-16T15:53:37.713Z,2.67
2022-10-16T15:56:26.224Z,6.20
2022-10-16T15:59:12.501Z,9.60
2022-10-16T16:01:59.074Z,11.65
2022-10-16T16:04:46.020Z,5.70
2022-10-16T16:07:36.021Z,5.82
2022-10-16T16:10:22.597Z,5.05
2022-10-16T16:13:08.870Z,3.60
2022-10-16T16:15:55.466Z,8.23
2022-10-16T16:18:42.382Z,11.05
2022-10-16T16:21:28.640Z,10.80
2022-10-16T16:24:16.653Z,5.45
2022-10-16T16:29:50.418Z,3.22
2022-10-16T16:32:36.814Z,11.98
2022-10-16T16:35:23.390Z,5.13
2022-10-16T16:38:09.750Z,3.92
2022-10-16T16:40:57.782Z,6.80
2022-10-16T16:43:44.454Z,5.90
2022-10-16T16:46:31.677Z,7.93
2022-10-16T16:49:18.043Z,8.25
2022-10-16T16:52:04.610Z,7.57
2022-10-16T16:54:52.785Z,8.32
2022-10-16T16:57:40.697Z,16.65
2022-10-16T17:00:27.029Z,9.75
2022-10-16T17:03:13.520Z,12.98
2022-10-16T17:06:00.423Z,12.23
2022-10-16T17:08:47.151Z,9.65
2022-10-16T17:11:33.483Z,10.32
2022-10-16T17:14:21.375Z,10.13
2022-10-16T17:17:07.984Z,6.55
2022-10-16T17:19:54.484Z,7.03
2022-10-16T17:22:40.701Z,11.63
2022-10-16T17:25:28.482Z,17.27
2022-10-16T17:28:17.079Z,8.77
2022-10-16T17:31:13.983Z,4.30
2022-10-16T17:34:00.461Z,8.88
2022-10-16T17:36:47.691Z,6.63
2022-10-16T17:39:34.289Z,3.50
2022-10-16T17:42:20.793Z,4.88
2022-10-16T17:45:08.301Z,4.45
2022-10-16T17:47:55.961Z,4.05
2022-10-16T17:50:42.666Z,5.10
2022-10-16T17:53:29.026Z,5.30
2022-10-16T17:56:15.609Z,4.15
2022-10-16T17:59:03.193Z,3.47
2022-10-16T18:01:49.617Z,4.05
2022-10-16T18:04:37.178Z,4.65
2022-10-16T18:07:24.090Z,16.25
2022-10-16T18:10:12.265Z,4.55
2022-10-16T18:12:58.563Z,4.65
2022-10-16T18:15:45.243Z,4.82
2022-10-16T18:18:31.586Z,7.30
2022-10-16T18:21:21.097Z,7.00
2022-10-16T18:24:07.863Z,6.28
2022-10-16T18:26:56.828Z,5.35
2022-10-16T18:29:43.090Z,4.82
2022-10-16T18:32:29.848Z,8.80
2022-10-16T18:35:16.130Z,7.03
2022-10-16T18:38:03.951Z,7.38
2022-10-16T18:40:50.366Z,9.18
2022-10-16T18:43:38.374Z,7.65
2022-10-16T18:46:26.210Z,9.23
2022-10-16T18:49:12.807Z,9.90
2022-10-16T18:52:00.549Z,11.23
2022-10-16T18:54:48.559Z,6.90
2022-10-16T18:57:35.061Z,9.27
2022-10-16T19:00:21.647Z,7.72
2022-10-16T19:03:08.019Z,6.45
2022-10-16T19:05:54.286Z,4.75
2022-10-16T19:08:41.165Z,6.40
2022-10-16T19:11:29.086Z,5.60
2022-10-16T19:14:17.239Z,6.03
2022-10-16T19:17:03.874Z,8.35
2022-10-16T19:19:50.245Z,8.93
2022-10-16T19:22:53.991Z,10.63
2022-10-16T19:25:40.774Z,18.23
2022-10-16T19:28:28.430Z,5.47
2022-10-16T19:31:16.601Z,5.43
2022-10-16T19:34:04.775Z,8.55
2022-10-16T19:36:54.378Z,6.93
2022-10-16T19:39:41.070Z,8.27
2022-10-16T19:42:27.529Z,10.32
2022-10-16T19:45:15.693Z,16.00
2022-10-16T19:48:01.954Z,10.80
2022-10-16T19:50:48.537Z,12.88
2022-10-16T19:53:35.043Z,13.20
2022-10-16T19:56:23.219Z,14.40
2022-10-16T19:59:11.601Z,17.15
2022-10-16T20:01:59.618Z,10.15
2022-10-16T20:04:45.716Z,13.13
2022-10-16T20:07:34.073Z,12.23
2022-10-16T20:10:21.454Z,10.10
2022-10-16T20:13:08.255Z,8.48
2022-10-16T20:15:54.880Z,8.18
2022-10-16T20:18:43.264Z,9.13
2022-10-16T20:21:31.419Z,9.10
2022-10-16T20:24:18.642Z,11.48
2022-10-16T20:27:05.183Z,10.43
2022-10-16T20:29:51.887Z,7.32
2022-10-16T20:32:38.569Z,8.70
2022-10-16T20:35:26.506Z,10.43
2022-10-16T20:38:13.773Z,8.05
2022-10-16T20:41:04.929Z,7.45
2022-10-16T20:43:52.942Z,9.90
2022-10-16T20:46:39.615Z,7.18
2022-10-16T20:49:40.349Z,7.78
2022-10-16T20:52:28.648Z,6.93
2022-10-16T20:55:16.007Z,8.07
2022-10-16T20:58:02.683Z,6.50
2022-10-16T21:00:49.210Z,8.25
2022-10-16T21:03:36.024Z,6.80
2022-10-16T21:06:23.794Z,8.15
2022-10-16T21:09:11.658Z,7.95
2022-10-16T21:11:57.803Z,8.30
2022-10-16T21:15:02.372Z,8.32
2022-10-16T21:17:50.755Z,6.97
2022-10-16T21:20:37.336Z,6.68
2022-10-16T21:23:23.502Z,5.50
2022-10-16T21:26:11.389Z,8.02
2022-10-16T21:29:00.459Z,5.97
2022-10-16T21:31:47.218Z,5.85
2022-10-16T21:34:33.382Z,6.10
2022-10-16T21:37:19.811Z,9.65
2022-10-16T21:40:07.124Z,6.35
2022-10-16T21:42:54.757Z,5.25
2022-10-16T21:45:40.989Z,5.38
2022-10-16T21:48:27.657Z,6.30
2022-10-16T21:51:15.141Z,5.97
2022-10-16T21:54:01.721Z,8.60
2022-10-16T21:56:48.104Z,6.55
2022-10-16T21:59:35.926Z,5.85
2022-10-16T22:02:22.408Z,4.70
2022-10-16T22:05:09.409Z,5.97
2022-10-16T22:07:55.786Z,6.55
2022-10-16T22:10:42.350Z,5.45
2022-10-16T22:13:28.666Z,4.78
2022-10-16T22:16:16.551Z,4.93
2022-10-16T22:19:06.908Z,5.10
2022-10-16T22:21:57.413Z,4.32
2022-10-16T22:24:43.880Z,4.50
2022-10-16T22:27:30.846Z,4.88
2022-10-16T22:30:17.395Z,4.22
2022-10-16T22:33:05.851Z,4.13
2022-10-16T22:35:52.452Z,5.20
2022-10-16T22:38:39.406Z,5.97
2022-10-16T22:41:26.301Z,4.53
2022-10-16T22:44:13.754Z,4.05
2022-10-16T22:46:59.931Z,5.82
2022-10-16T22:49:47.633Z,6.00
2022-10-16T22:52:34.242Z,5.55
2022-10-16T22:55:20.697Z,4.25
2022-10-16T22:58:06.947Z,4.80
2022-10-16T23:00:53.835Z,5.43
2022-10-16T23:03:40.236Z,4.78
2022-10-16T23:06:28.654Z,4.38
2022-10-16T23:09:14.931Z,4.03
2022-10-16T23:12:01.909Z,3.60
2022-10-16T23:14:48.449Z,4.63
2022-10-16T23:17:35.073Z,4.85
2022-10-16T23:20:21.429Z,3.83
2022-10-16T23:23:09.313Z,4.70
2022-10-16T23:25:55.535Z,6.70
2022-10-16T23:28:42.292Z,8.15
2022-10-16T23:31:29.834Z,3.92
2022-10-16T23:34:15.918Z,4.10
2022-10-16T23:37:03.666Z,5.63
2022-10-16T23:39:51.338Z,6.95
2022-10-16T23:42:37.499Z,3.65
2022-10-16T23:45:24.066Z,5.82
2022-10-16T23:48:10.210Z,3.72
2022-10-16T23:50:56.943Z,4.53
2022-10-16T23:53:43.555Z,3.45
2022-10-16T23:56:31.323Z,4.90
2022-10-16T23:59:17.534Z,5.28
